Time;durP1;ratioP1;P1;durP2;ratioP2;P2;SDS_P1;SDS_P2;PMS_P1;PMS_P2;Temp;Humidity;BMP_temperature;BMP_pressure;BME280_temperature;BME280_humidity;BME280_pressure;Samples;Min_cycle;Max_cycle;Signal;HPM_P1;HPM_P2
2021/10/02 00:33:34;;;;;;;;;14.33;9.67;;;;;-144.24;100.00;60536.00;5067673;28;8781;-75
2021/10/02 00:35:03;;;;;;;;;8.33;8.33;;;;;-144.24;100.00;60536.00;5068383;28;8819;-74
2021/10/02 00:45:30;;;;;;;;;11.33;6.00;;;;;-144.24;100.00;60536.00;5069718;28;8821;-75
2021/10/02 00:47:55;;;;;;;;;11.00;7.00;;;;;-144.24;100.00;60536.00;5085399;28;8809;-74
2021/10/02 00:50:21;;;;;;;;;9.33;7.00;;;;;-144.24;100.00;60536.00;5071279;28;8920;-74
2021/10/02 00:52:46;;;;;;;;;9.33;6.00;;;;;-144.24;100.00;60536.00;5074639;28;14051;-73
2021/10/02 00:55:12;;;;;;;;;8.67;7.00;;;;;-144.24;100.00;60536.00;5072441;28;8825;-74
2021/10/02 00:57:37;;;;;;;;;7.00;7.00;;;;;-144.24;100.00;60536.00;5073584;28;8856;-76
2021/10/02 01:00:03;;;;;;;;;8.33;6.67;;;;;-144.24;100.00;60536.00;5078013;28;21305;-77
2021/10/02 01:03:16;;;;;;;;;6.67;6.00;;;;;-144.24;100.00;60536.00;5076098;28;8785;-76
2021/10/02 01:06:11;;;;;;;;;6.00;6.00;;;;;-144.24;100.00;60536.00;5065446;28;8810;-73
2021/10/02 01:08:50;;;;;;;;;12.00;8.33;;;;;-144.24;100.00;60536.00;5055227;28;8809;-74
2021/10/02 01:11:25;;;;;;;;;3.67;3.67;;;;;-144.24;100.00;60536.00;5062715;28;8835;-74
2021/10/02 01:14:06;;;;;;;;;8.67;7.00;;;;;-144.24;100.00;60536.00;5065119;28;9747;-75
2021/10/02 01:16:37;;;;;;;;;11.33;6.33;;;;;-144.24;100.00;60536.00;5071570;28;8782;-73
2021/10/02 01:19:05;;;;;;;;;7.00;6.00;;;;;-144.24;100.00;60536.00;5088911;28;8821;-74
2021/10/02 01:21:49;;;;;;;;;6.00;6.00;;;;;-144.24;100.00;60536.00;5076300;28;8821;-74
2021/10/02 01:24:32;;;;;;;;;8.67;7.67;;;;;-144.24;100.00;60536.00;5073625;28;8801;-73
2021/10/02 01:27:35;;;;;;;;;7.67;6.00;;;;;-144.24;100.00;60536.00;5063130;28;8821;-76
2021/10/02 01:30:07;;;;;;;;;8.33;6.67;;;;;-144.24;100.00;60536.00;5069782;28;9559;-75
2021/10/02 01:32:37;;;;;;;;;8.33;7.00;;;;;-144.24;100.00;60536.00;5075458;28;8879;-74
2021/10/02 01:35:13;;;;;;;;;10.67;7.33;;;;;-144.24;100.00;60536.00;5042216;28;8822;-75
2021/10/02 01:37:57;;;;;;;;;9.67;8.00;;;;;-144.24;100.00;60536.00;5071647;28;8833;-75
2021/10/02 01:48:38;;;;;;;;;9.67;7.00;;;;;-144.24;100.00;60536.00;5057499;28;8812;-74
2021/10/02 01:51:04;;;;;;;;;6.67;6.67;;;;;-144.24;100.00;60536.00;5030127;28;8824;-77
2021/10/02 01:53:33;;;;;;;;;7.67;7.67;;;;;-144.24;100.00;60536.00;5072354;28;20220;-73
2021/10/02 01:56:02;;;;;;;;;7.67;7.67;;;;;-144.24;100.00;60536.00;5086839;28;8816;-75
2021/10/02 01:58:27;;;;;;;;;5.33;5.33;;;;;-144.24;100.00;60536.00;5037482;28;8915;-74
2021/10/02 02:00:52;;;;;;;;;16.00;8.00;;;;;-144.24;100.00;60536.00;5053509;28;18377;-75
2021/10/02 02:03:19;;;;;;;;;8.67;7.00;;;;;-144.24;100.00;60536.00;5075281;28;8832;-76
2021/10/02 02:05:45;;;;;;;;;8.00;6.67;;;;;-144.24;100.00;60536.00;5048441;28;8890;-75
2021/10/02 02:08:13;;;;;;;;;8.00;8.00;;;;;-144.24;100.00;60536.00;5088127;28;19358;-73
2021/10/02 02:10:39;;;;;;;;;6.00;6.00;;;;;-144.24;100.00;60536.00;5074455;28;8915;-74
2021/10/02 02:13:04;;;;;;;;;9.00;6.67;;;;;-144.24;100.00;60536.00;5074721;28;8785;-74
2021/10/02 02:15:30;;;;;;;;;8.00;5.33;;;;;-144.24;100.00;60536.00;5053445;28;23318;-74
2021/10/02 02:17:59;;;;;;;;;6.00;6.00;;;;;-144.24;100.00;60536.00;5074131;28;8855;-76
2021/10/02 02:20:41;;;;;;;;;7.00;6.33;;;;;-144.24;100.00;60536.00;5070295;28;8781;-74
2021/10/02 02:23:08;;;;;;;;;6.00;5.00;;;;;-144.24;100.00;60536.00;5086327;28;8800;-74
2021/10/02 02:25:33;;;;;;;;;7.33;5.67;;;;;-144.24;100.00;60536.00;5053870;28;8774;-74
2021/10/02 02:27:59;;;;;;;;;7.00;5.67;;;;;-144.24;100.00;60536.00;5086955;28;23258;-74
2021/10/02 02:30:24;;;;;;;;;7.33;5.00;;;;;-144.24;100.00;60536.00;5053776;28;8815;-75
2021/10/02 02:32:51;;;;;;;;;6.67;5.00;;;;;-144.24;100.00;60536.00;5072483;28;8813;-74
2021/10/02 02:35:18;;;;;;;;;3.00;3.00;;;;;-144.24;100.00;60536.00;5072111;28;8808;-74
2021/10/02 02:37:43;;;;;;;;;6.00;4.33;;;;;-144.24;100.00;60536.00;5076956;28;8815;-75
2021/10/02 02:40:09;;;;;;;;;4.00;4.00;;;;;-144.24;100.00;60536.00;5070625;28;20539;-77
2021/10/02 02:42:34;;;;;;;;;5.00;4.00;;;;;-144.24;100.00;60536.00;5078459;28;8972;-76
2021/10/02 02:45:00;;;;;;;;;4.00;4.00;;;;;-144.24;100.00;60536.00;5063484;28;18666;-76
2021/10/02 02:47:26;;;;;;;;;5.00;3.00;;;;;-144.24;100.00;60536.00;5047749;28;22471;-75
2021/10/02 02:50:04;;;;;;;;;4.00;4.00;;;;;-144.24;100.00;60536.00;5087135;28;8785;-76
2021/10/02 02:52:37;;;;;;;;;7.33;4.00;;;;;-144.24;100.00;60536.00;5053438;28;8796;-78
2021/10/02 02:55:06;;;;;;;;;7.00;4.00;;;;;-144.24;100.00;60536.00;5071209;28;8805;-75
2021/10/02 02:57:57;;;;;;;;;4.67;4.00;;;;;-144.24;100.00;60536.00;5071450;28;8823;-75
2021/10/02 03:00:22;;;;;;;;;9.00;6.33;;;;;-144.24;100.00;60536.00;5044692;28;8828;-76
2021/10/02 03:02:48;;;;;;;;;4.00;4.00;;;;;-144.24;100.00;60536.00;5071799;28;8882;-74
2021/10/02 03:05:13;;;;;;;;;3.00;3.00;;;;;-144.24;100.00;60536.00;5047239;28;8908;-74
2021/10/02 03:07:40;;;;;;;;;6.00;3.33;;;;;-144.24;100.00;60536.00;5053590;28;22363;-74
2021/10/02 03:10:08;;;;;;;;;5.67;5.67;;;;;-144.24;100.00;60536.00;5052383;28;8805;-76
2021/10/02 03:12:36;;;;;;;;;8.00;5.00;;;;;-144.24;100.00;60536.00;5050254;28;8808;-74
2021/10/02 03:15:02;;;;;;;;;4.67;4.67;;;;;-144.24;100.00;60536.00;5070780;28;8862;-76
2021/10/02 03:17:28;;;;;;;;;5.67;4.33;;;;;-144.24;100.00;60536.00;5086175;28;8761;-76
2021/10/02 03:19:54;;;;;;;;;3.67;2.67;;;;;-144.24;100.00;60536.00;5069206;28;8797;-74
2021/10/02 03:22:19;;;;;;;;;4.67;3.33;;;;;-144.24;100.00;60536.00;5070276;28;16275;-76
2021/10/02 03:24:44;;;;;;;;;4.00;4.00;;;;;-144.24;100.00;60536.00;5082884;28;8887;-73
2021/10/02 03:27:10;;;;;;;;;7.33;4.00;;;;;-144.24;100.00;60536.00;5068355;28;19984;-74
2021/10/02 03:29:35;;;;;;;;;6.00;4.00;;;;;-144.24;100.00;60536.00;5043393;28;20422;-76
2021/10/02 03:32:06;;;;;;;;;6.00;4.00;;;;;-144.24;100.00;60536.00;5052599;28;8801;-74
2021/10/02 03:34:32;;;;;;;;;5.00;5.00;;;;;-144.24;100.00;60536.00;5070555;28;8777;-76
2021/10/02 03:36:57;;;;;;;;;4.00;4.00;;;;;-144.24;100.00;60536.00;5052840;28;8777;-74
2021/10/02 03:39:23;;;;;;;;;3.00;3.00;;;;;-144.24;100.00;60536.00;5046047;28;8828;-74
2021/10/02 03:42:14;;;;;;;;;4.00;4.00;;;;;-144.24;100.00;60536.00;5070674;28;8809;-74
2021/10/02 03:44:46;;;;;;;;;8.00;6.33;;;;;-144.24;100.00;60536.00;5067869;28;8792;-76
2021/10/02 03:47:12;;;;;;;;;7.00;6.00;;;;;-144.24;100.00;60536.00;5068145;28;8809;-74
2021/10/02 03:49:38;;;;;;;;;6.00;6.00;;;;;-144.24;100.00;60536.00;5069988;28;8805;-74
2021/10/02 03:52:04;;;;;;;;;7.00;5.33;;;;;-144.24;100.00;60536.00;5052814;28;8800;-74
2021/10/02 03:54:29;;;;;;;;;10.00;8.00;;;;;-144.24;100.00;60536.00;5066845;28;8801;-74
2021/10/02 03:56:55;;;;;;;;;11.33;7.00;;;;;-144.24;100.00;60536.00;5069732;28;14930;-74
2021/10/02 03:59:20;;;;;;;;;7.00;7.00;;;;;-144.24;100.00;60536.00;5070737;28;8844;-73
2021/10/02 04:01:46;;;;;;;;;8.33;8.33;;;;;-144.24;100.00;60536.00;5071613;28;15990;-77
2021/10/02 04:04:11;;;;;;;;;10.33;8.00;;;;;-144.24;100.00;60536.00;5057191;28;8797;-74
2021/10/02 04:06:36;;;;;;;;;9.33;8.00;;;;;-144.24;100.00;60536.00;5070065;28;18895;-74
2021/10/02 04:09:02;;;;;;;;;10.00;7.67;;;;;-144.24;100.00;60536.00;5070097;28;8957;-74
2021/10/02 04:11:30;;;;;;;;;11.00;8.33;;;;;-144.24;100.00;60536.00;5066701;28;8817;-74
2021/10/02 04:13:55;;;;;;;;;12.33;8.67;;;;;-144.24;100.00;60536.00;5068577;28;8785;-75
2021/10/02 04:16:21;;;;;;;;;8.00;8.00;;;;;-144.24;100.00;60536.00;5069235;28;20405;-77
2021/10/02 04:18:46;;;;;;;;;9.67;8.67;;;;;-144.24;100.00;60536.00;5068462;28;19220;-75
2021/10/02 04:21:12;;;;;;;;;8.67;8.00;;;;;-144.24;100.00;60536.00;5069008;28;23275;-73
2021/10/02 04:23:37;;;;;;;;;9.00;9.00;;;;;-144.24;100.00;60536.00;5054940;28;8805;-73
2021/10/02 04:26:03;;;;;;;;;9.00;9.00;;;;;-144.24;100.00;60536.00;5073961;28;14890;-75
2021/10/02 04:28:28;;;;;;;;;7.67;7.67;;;;;-144.24;100.00;60536.00;5090533;28;8876;-74
2021/10/02 04:30:54;;;;;;;;;7.00;7.00;;;;;-144.24;100.00;60536.00;5072374;28;20893;-73
2021/10/02 04:33:21;;;;;;;;;6.67;5.00;;;;;-144.24;100.00;60536.00;5068851;28;20654;-75
2021/10/02 04:35:46;;;;;;;;;9.00;8.67;;;;;-144.24;100.00;60536.00;5070137;28;8805;-75
2021/10/02 04:38:12;;;;;;;;;9.00;9.00;;;;;-144.24;100.00;60536.00;5073471;28;8829;-74
2021/10/02 04:40:37;;;;;;;;;8.00;8.00;;;;;-144.24;100.00;60536.00;5054969;28;8900;-75
2021/10/02 04:43:02;;;;;;;;;8.33;8.33;;;;;-144.24;100.00;60536.00;5072512;28;21954;-75
2021/10/02 04:45:28;;;;;;;;;7.00;7.00;;;;;-144.24;100.00;60536.00;5052482;28;22034;-76
2021/10/02 04:47:53;;;;;;;;;7.33;6.00;;;;;-144.24;100.00;60536.00;5072778;28;20077;-74
2021/10/02 04:50:19;;;;;;;;;10.00;9.67;;;;;-144.24;100.00;60536.00;5076295;28;22561;-74
2021/10/02 04:52:44;;;;;;;;;9.67;8.67;;;;;-144.24;100.00;60536.00;5072950;28;22347;-75
2021/10/02 04:55:09;;;;;;;;;7.00;6.67;;;;;-144.24;100.00;60536.00;5073296;28;8801;-73
2021/10/02 04:57:35;;;;;;;;;15.67;10.33;;;;;-144.24;100.00;60536.00;5053333;28;8825;-77
2021/10/02 05:00:00;;;;;;;;;9.67;8.33;;;;;-144.24;100.00;60536.00;5068499;28;20444;-74
2021/10/02 05:02:26;;;;;;;;;11.67;7.67;;;;;-144.24;100.00;60536.00;5077041;28;8809;-74
2021/10/02 05:04:51;;;;;;;;;11.00;8.33;;;;;-144.24;100.00;60536.00;5072874;28;8808;-73
2021/10/02 05:07:17;;;;;;;;;7.00;7.00;;;;;-144.24;100.00;60536.00;5072160;28;17372;-74
2021/10/02 05:09:42;;;;;;;;;8.67;7.67;;;;;-144.24;100.00;60536.00;5076453;28;8855;-73
2021/10/02 05:12:09;;;;;;;;;13.00;8.00;;;;;-144.24;100.00;60536.00;5073090;28;8816;-76
2021/10/02 05:14:34;;;;;;;;;11.33;9.00;;;;;-144.24;100.00;60536.00;5070160;28;8870;-75
2021/10/02 05:19:32;;;;;;;;;9.67;8.00;;;;;-144.24;100.00;60536.00;5068462;28;8844;-77
2021/10/02 05:21:57;;;;;;;;;10.67;9.33;;;;;-144.24;100.00;60536.00;5073154;28;8769;-73
2021/10/02 05:24:23;;;;;;;;;8.33;7.33;;;;;-144.24;100.00;60536.00;5055381;28;8813;-75
2021/10/02 05:26:48;;;;;;;;;9.00;9.00;;;;;-144.24;100.00;60536.00;5073103;28;9460;-74
2021/10/02 05:29:14;;;;;;;;;7.00;7.00;;;;;-144.24;100.00;60536.00;5073301;28;8812;-73
2021/10/02 05:31:39;;;;;;;;;10.33;9.00;;;;;-144.24;100.00;60536.00;5072686;28;8811;-74
2021/10/02 05:34:04;;;;;;;;;10.67;7.67;;;;;-144.24;100.00;60536.00;5071768;28;8801;-75
2021/10/02 05:36:30;;;;;;;;;10.33;8.00;;;;;-144.24;100.00;60536.00;5053560;28;12054;-75
2021/10/02 05:38:55;;;;;;;;;12.00;8.33;;;;;-144.24;100.00;60536.00;5072588;28;13211;-76
2021/10/02 05:41:21;;;;;;;;;9.67;7.67;;;;;-144.24;100.00;60536.00;5073313;28;13355;-74
2021/10/02 05:43:46;;;;;;;;;10.33;9.00;;;;;-144.24;100.00;60536.00;5072172;28;22307;-73
2021/10/02 05:46:11;;;;;;;;;10.00;7.00;;;;;-144.24;100.00;60536.00;5073078;28;9535;-74
2021/10/02 05:48:37;;;;;;;;;14.67;8.00;;;;;-144.24;100.00;60536.00;5072809;28;12970;-74
2021/10/02 05:51:02;;;;;;;;;9.00;8.67;;;;;-144.24;100.00;60536.00;5072632;28;22079;-74
2021/10/02 05:53:28;;;;;;;;;11.67;10.33;;;;;-144.24;100.00;60536.00;5072587;28;20240;-73
2021/10/02 05:55:53;;;;;;;;;9.00;8.33;;;;;-144.24;100.00;60536.00;5072372;28;21242;-74
2021/10/02 05:58:19;;;;;;;;;8.67;8.67;;;;;-144.24;100.00;60536.00;5053545;28;8809;-74
2021/10/02 06:00:44;;;;;;;;;10.00;10.00;;;;;-144.24;100.00;60536.00;5072463;28;8793;-73
2021/10/02 06:03:10;;;;;;;;;10.67;8.67;;;;;-144.24;100.00;60536.00;5078888;28;11567;-73
2021/10/02 06:05:35;;;;;;;;;12.00;10.00;;;;;-144.24;100.00;60536.00;5072355;28;10176;-74
2021/10/02 06:08:01;;;;;;;;;10.00;10.00;;;;;-144.24;100.00;60536.00;5072337;28;18923;-76
2021/10/02 06:10:26;;;;;;;;;11.67;8.67;;;;;-144.24;100.00;60536.00;5071499;28;18204;-75
2021/10/02 06:12:55;;;;;;;;;9.00;9.00;;;;;-144.24;100.00;60536.00;5054659;28;8809;-76
2021/10/02 06:15:24;;;;;;;;;14.67;11.00;;;;;-144.24;100.00;60536.00;5072521;28;9524;-76
2021/10/02 06:17:50;;;;;;;;;11.67;9.00;;;;;-144.24;100.00;60536.00;5071798;28;8820;-74
2021/10/02 06:20:16;;;;;;;;;9.33;9.33;;;;;-144.24;100.00;60536.00;5073182;28;9544;-76
2021/10/02 06:22:41;;;;;;;;;10.33;9.00;;;;;-144.24;100.00;60536.00;5053722;28;8881;-77
2021/10/02 06:25:07;;;;;;;;;8.67;7.33;;;;;-144.24;100.00;60536.00;5074652;28;8825;-75
2021/10/02 06:27:32;;;;;;;;;9.00;8.00;;;;;-144.24;100.00;60536.00;5069815;28;9531;-74
2021/10/02 06:29:59;;;;;;;;;7.67;6.33;;;;;-144.24;100.00;60536.00;5071803;28;8793;-76
2021/10/02 06:32:25;;;;;;;;;8.33;8.00;;;;;-144.24;100.00;60536.00;5069753;28;8808;-76
2021/10/02 06:34:50;;;;;;;;;9.67;7.00;;;;;-144.24;100.00;60536.00;5070880;28;10482;-75
2021/10/02 06:37:16;;;;;;;;;5.33;5.33;;;;;-144.24;100.00;60536.00;5071332;28;21818;-74
2021/10/02 06:39:41;;;;;;;;;5.00;4.00;;;;;-144.24;100.00;60536.00;5070251;28;22030;-74
2021/10/02 06:42:06;;;;;;;;;6.00;4.00;;;;;-144.24;100.00;60536.00;5071112;28;11673;-78
2021/10/02 06:44:32;;;;;;;;;5.67;5.67;;;;;-144.24;100.00;60536.00;5072546;28;16624;-75
2021/10/02 06:46:57;;;;;;;;;7.67;5.00;;;;;-144.24;100.00;60536.00;5071324;28;8813;-74
2021/10/02 06:49:27;;;;;;;;;6.67;4.00;;;;;-144.24;100.00;60536.00;5053120;28;14205;-74
2021/10/02 06:51:53;;;;;;;;;8.67;7.00;;;;;-144.24;100.00;60536.00;5071631;28;8801;-74
2021/10/02 06:54:18;;;;;;;;;6.00;6.00;;;;;-144.24;100.00;60536.00;5071242;28;8813;-74
2021/10/02 06:56:43;;;;;;;;;3.67;3.00;;;;;-144.24;100.00;60536.00;5071084;28;22603;-79
2021/10/02 06:59:09;;;;;;;;;4.33;3.33;;;;;-144.24;100.00;60536.00;5059946;28;15671;-73
2021/10/02 07:01:34;;;;;;;;;4.00;4.00;;;;;-144.24;100.00;60536.00;5044715;28;8801;-75
2021/10/02 07:04:00;;;;;;;;;5.00;3.33;;;;;-144.24;100.00;60536.00;5059525;28;15121;-75
2021/10/02 07:06:25;;;;;;;;;5.33;4.00;;;;;-144.24;100.00;60536.00;5061784;28;20801;-77
2021/10/02 07:08:51;;;;;;;;;6.33;2.33;;;;;-144.24;100.00;60536.00;5057074;28;8807;-75
2021/10/02 07:11:16;;;;;;;;;5.00;3.67;;;;;-144.24;100.00;60536.00;5057396;28;8828;-74
2021/10/02 07:13:42;;;;;;;;;6.00;4.00;;;;;-144.24;100.00;60536.00;5062950;28;8851;-75
2021/10/02 07:16:07;;;;;;;;;7.33;5.00;;;;;-144.24;100.00;60536.00;5070131;28;18461;-79
2021/10/02 07:18:32;;;;;;;;;5.00;3.00;;;;;-144.24;100.00;60536.00;5070762;28;18222;-79
2021/10/02 07:20:58;;;;;;;;;7.33;3.00;;;;;-144.24;100.00;60536.00;5070495;28;8917;-78
2021/10/02 07:23:24;;;;;;;;;8.33;4.33;;;;;-144.24;100.00;60536.00;5068246;28;22077;-79
2021/10/02 07:25:49;;;;;;;;;5.67;5.00;;;;;-144.24;100.00;60536.00;5069092;28;8808;-79
2021/10/02 07:28:15;;;;;;;;;3.67;3.67;;;;;-144.24;100.00;60536.00;5065587;28;18639;-81
2021/10/02 07:30:40;;;;;;;;;5.67;4.33;;;;;-144.24;100.00;60536.00;5188272;22;9549;-78
2021/10/02 07:35:41;;;;;;;;;5.00;5.00;;;;;-144.24;100.00;60536.00;4839737;25;8838;-75
2021/10/02 07:38:06;;;;;;;;;6.67;3.67;;;;;-144.24;100.00;60536.00;5100951;22;15515;-76
2021/10/02 07:40:32;;;;;;;;;4.67;3.00;;;;;-144.24;100.00;60536.00;5085026;28;8841;-76
2021/10/02 07:42:59;;;;;;;;;3.00;3.00;;;;;-144.24;100.00;60536.00;5090771;28;8870;-76
2021/10/02 07:45:26;;;;;;;;;7.67;4.67;;;;;-144.24;100.00;60536.00;5069074;28;9761;-75
2021/10/02 07:47:57;;;;;;;;;4.67;3.33;;;;;-144.24;100.00;60536.00;5091707;28;8788;-75
2021/10/02 07:50:23;;;;;;;;;4.33;3.00;;;;;-144.24;100.00;60536.00;5090680;28;8779;-76
2021/10/02 07:52:50;;;;;;;;;6.00;2.00;;;;;-144.24;100.00;60536.00;5093424;22;8880;-75
2021/10/02 07:55:15;;;;;;;;;2.00;2.00;;;;;-144.24;100.00;60536.00;5083525;22;8835;-75
2021/10/02 07:57:42;;;;;;;;;4.33;3.00;;;;;-144.24;100.00;60536.00;5107622;22;8832;-75
2021/10/02 08:00:09;;;;;;;;;9.00;3.00;;;;;-144.24;100.00;60536.00;5099299;22;9630;-74
2021/10/02 08:02:35;;;;;;;;;5.33;2.00;;;;;-144.24;100.00;60536.00;5097678;22;8811;-74
2021/10/02 08:05:00;;;;;;;;;4.00;2.00;;;;;-144.24;100.00;60536.00;5053748;28;18060;-75
2021/10/02 08:07:30;;;;;;;;;3.67;2.67;;;;;-144.24;100.00;60536.00;5073673;28;9617;-75
2021/10/02 08:09:55;;;;;;;;;2.33;2.00;;;;;-144.24;100.00;60536.00;5074824;28;8805;-75
2021/10/02 08:12:20;;;;;;;;;5.33;3.00;;;;;-144.24;100.00;60536.00;5091240;28;19682;-76
2021/10/02 08:14:46;;;;;;;;;2.00;2.00;;;;;-144.24;100.00;60536.00;5091026;28;22440;-77
2021/10/02 08:17:11;;;;;;;;;5.33;3.00;;;;;-144.24;100.00;60536.00;5098740;22;9647;-75
2021/10/02 08:19:37;;;;;;;;;4.00;2.00;;;;;-144.24;100.00;60536.00;5069359;28;16226;-76
2021/10/02 08:22:03;;;;;;;;;3.33;3.00;;;;;-144.24;100.00;60536.00;5089712;28;8823;-73
2021/10/02 08:24:28;;;;;;;;;5.33;3.67;;;;;-144.24;100.00;60536.00;5089452;28;8873;-77
2021/10/02 08:26:54;;;;;;;;;6.33;2.00;;;;;-144.24;100.00;60536.00;5090336;28;17159;-76
2021/10/02 08:29:20;;;;;;;;;4.33;3.00;;;;;-144.24;100.00;60536.00;5068407;28;8822;-76
2021/10/02 08:31:46;;;;;;;;;5.67;2.67;;;;;-144.24;100.00;60536.00;5072234;28;8795;-76
2021/10/02 08:34:11;;;;;;;;;3.00;3.00;;;;;-144.24;100.00;60536.00;5088982;28;8928;-76
2021/10/02 08:36:37;;;;;;;;;5.00;3.67;;;;;-144.24;100.00;60536.00;5088988;28;8811;-75
2021/10/02 08:39:02;;;;;;;;;5.67;3.00;;;;;-144.24;100.00;60536.00;5089371;28;19336;-77
2021/10/02 08:41:28;;;;;;;;;3.67;2.00;;;;;-144.24;100.00;60536.00;5088760;28;14104;-77
2021/10/02 08:43:53;;;;;;;;;2.00;2.00;;;;;-144.24;100.00;60536.00;5071573;28;14371;-76
2021/10/02 08:46:20;;;;;;;;;6.00;3.67;;;;;-144.24;100.00;60536.00;5054429;28;8815;-77
2021/10/02 08:49:01;;;;;;;;;4.00;3.00;;;;;-144.24;100.00;60536.00;5072103;28;8801;-76
2021/10/02 08:51:26;;;;;;;;;6.33;3.33;;;;;-144.24;100.00;60536.00;5089147;28;8913;-76
2021/10/02 08:53:52;;;;;;;;;4.00;3.00;;;;;-144.24;100.00;60536.00;5088958;28;15912;-76
2021/10/02 08:56:18;;;;;;;;;4.67;3.00;;;;;-144.24;100.00;60536.00;5055360;28;8806;-76
2021/10/02 08:58:43;;;;;;;;;5.33;3.67;;;;;-144.24;100.00;60536.00;5070965;28;8869;-76
2021/10/02 09:01:10;;;;;;;;;5.00;4.00;;;;;-144.24;100.00;60536.00;5089906;28;14298;-76
2021/10/02 09:03:35;;;;;;;;;6.00;4.00;;;;;-144.24;100.00;60536.00;5088764;28;8777;-76
2021/10/02 09:06:01;;;;;;;;;5.00;4.00;;;;;-144.24;100.00;60536.00;5071797;28;8790;-76
2021/10/02 09:08:26;;;;;;;;;7.00;4.00;;;;;-144.24;100.00;60536.00;5090778;28;8798;-76
2021/10/02 09:10:51;;;;;;;;;3.00;3.00;;;;;-144.24;100.00;60536.00;5091583;28;8823;-76
2021/10/02 09:13:17;;;;;;;;;5.67;2.00;;;;;-144.24;100.00;60536.00;5092876;28;20031;-77
2021/10/02 09:15:42;;;;;;;;;4.00;2.67;;;;;-144.24;100.00;60536.00;5092954;28;8915;-76
2021/10/02 09:18:08;;;;;;;;;3.00;3.00;;;;;-144.24;100.00;60536.00;5086088;28;9588;-76
2021/10/02 09:20:33;;;;;;;;;8.67;3.00;;;;;-144.24;100.00;60536.00;5093460;28;8794;-76
2021/10/02 09:23:04;;;;;;;;;5.00;3.67;;;;;-144.24;100.00;60536.00;5092662;28;9323;-76
2021/10/02 09:25:30;;;;;;;;;4.00;4.00;;;;;-144.24;100.00;60536.00;5093512;28;8875;-76
2021/10/02 09:28:04;;;;;;;;;3.00;3.00;;;;;-144.24;100.00;60536.00;5092193;28;8779;-77
2021/10/02 09:30:29;;;;;;;;;5.67;2.00;;;;;-144.24;100.00;60536.00;5087818;28;8833;-77
2021/10/02 09:33:01;;;;;;;;;3.33;3.33;;;;;-144.24;100.00;60536.00;5092712;28;8815;-77
2021/10/02 09:35:27;;;;;;;;;6.00;2.67;;;;;-144.24;100.00;60536.00;5092800;28;8879;-77
2021/10/02 09:37:54;;;;;;;;;5.00;4.00;;;;;-144.24;100.00;60536.00;5092003;28;18740;-77
2021/10/02 09:40:24;;;;;;;;;4.00;3.00;;;;;-144.24;100.00;60536.00;5092479;28;8841;-77
2021/10/02 09:42:54;;;;;;;;;4.00;3.00;;;;;-144.24;100.00;60536.00;5093193;28;8795;-77
2021/10/02 09:45:26;;;;;;;;;3.00;3.00;;;;;-144.24;100.00;60536.00;5092048;28;8779;-78
2021/10/02 09:47:53;;;;;;;;;3.67;2.00;;;;;-144.24;100.00;60536.00;5073799;28;8798;-77
2021/10/02 09:50:21;;;;;;;;;4.33;3.00;;;;;-144.24;100.00;60536.00;5092263;28;8799;-77
2021/10/02 09:52:47;;;;;;;;;4.00;4.00;;;;;-144.24;100.00;60536.00;5085197;28;8799;-77
2021/10/02 09:55:24;;;;;;;;;6.00;3.00;;;;;-144.24;100.00;60536.00;5092789;28;8790;-76
2021/10/02 09:57:51;;;;;;;;;6.33;2.33;;;;;-144.24;100.00;60536.00;5092777;28;8816;-77
2021/10/02 10:00:19;;;;;;;;;6.00;2.67;;;;;-144.24;100.00;60536.00;5074099;28;8829;-76
2021/10/02 10:02:45;;;;;;;;;4.00;2.67;;;;;-144.24;100.00;60536.00;5092331;28;9684;-77
2021/10/02 10:05:11;;;;;;;;;4.67;3.00;;;;;-144.24;100.00;60536.00;5092293;28;8807;-77
2021/10/02 10:07:36;;;;;;;;;6.67;3.00;;;;;-144.24;100.00;60536.00;5092387;28;8791;-76
2021/10/02 10:10:10;;;;;;;;;5.67;4.33;;;;;-144.24;100.00;60536.00;5073957;28;8809;-77
2021/10/02 10:12:36;;;;;;;;;3.33;2.00;;;;;-144.24;100.00;60536.00;5091376;28;8831;-76
2021/10/02 10:15:01;;;;;;;;;4.00;4.00;;;;;-144.24;100.00;60536.00;5092788;28;8791;-76
2021/10/02 10:17:31;;;;;;;;;4.67;3.00;;;;;-144.24;100.00;60536.00;5092160;28;8823;-77
2021/10/02 10:20:06;;;;;;;;;5.33;3.00;;;;;-144.24;100.00;60536.00;5091649;28;8815;-77
2021/10/02 10:22:31;;;;;;;;;5.67;2.67;;;;;-144.24;100.00;60536.00;5092693;28;8811;-76
2021/10/02 10:24:58;;;;;;;;;3.33;3.00;;;;;-144.24;100.00;60536.00;5090517;28;8795;-75
2021/10/02 10:27:35;;;;;;;;;5.67;4.00;;;;;-144.24;100.00;60536.00;5091047;28;8937;-76
2021/10/02 10:30:09;;;;;;;;;3.00;2.00;;;;;-144.24;100.00;60536.00;5072651;28;8891;-76
2021/10/02 10:32:36;;;;;;;;;3.33;2.00;;;;;-144.24;100.00;60536.00;5089820;28;8807;-77
2021/10/02 10:35:01;;;;;;;;;5.00;2.00;;;;;-144.24;100.00;60536.00;5089645;28;8797;-76
2021/10/02 10:37:26;;;;;;;;;3.33;3.33;;;;;-144.24;100.00;60536.00;5091941;28;21618;-76
2021/10/02 10:39:57;;;;;;;;;3.00;3.00;;;;;-144.24;100.00;60536.00;5072688;28;19475;-76
2021/10/02 10:42:25;;;;;;;;;5.33;2.00;;;;;-144.24;100.00;60536.00;5083831;28;8810;-76
2021/10/02 10:44:51;;;;;;;;;3.00;3.00;;;;;-144.24;100.00;60536.00;5062433;28;8812;-76
2021/10/02 10:47:16;;;;;;;;;8.00;3.00;;;;;-144.24;100.00;60536.00;5069428;28;20146;-78
2021/10/02 10:49:41;;;;;;;;;2.00;1.00;;;;;-144.24;100.00;60536.00;5055683;28;18966;-77
2021/10/02 10:52:12;;;;;;;;;3.00;2.00;;;;;-144.24;100.00;60536.00;5071289;28;8802;-76
2021/10/02 10:54:41;;;;;;;;;4.00;2.67;;;;;-144.24;100.00;60536.00;5083732;28;8895;-74
2021/10/02 10:57:06;;;;;;;;;4.00;3.00;;;;;-144.24;100.00;60536.00;5090630;28;8795;-74
2021/10/02 10:59:50;;;;;;;;;4.33;3.33;;;;;-144.24;100.00;60536.00;5089514;28;23202;-76
2021/10/02 11:02:41;;;;;;;;;6.67;2.00;;;;;-144.24;100.00;60536.00;5091272;28;8787;-74
2021/10/02 11:05:25;;;;;;;;;4.67;3.00;;;;;-144.24;100.00;60536.00;5091412;28;8779;-73
2021/10/02 11:07:52;;;;;;;;;2.00;2.00;;;;;-144.24;100.00;60536.00;5075132;28;9517;-73
2021/10/02 11:10:42;;;;;;;;;4.67;2.67;;;;;-144.24;100.00;60536.00;5091274;28;9580;-73
2021/10/02 11:13:12;;;;;;;;;3.00;3.00;;;;;-144.24;100.00;60536.00;5088851;28;8824;-75
2021/10/02 11:15:37;;;;;;;;;2.00;2.00;;;;;-144.24;100.00;60536.00;5072176;28;8800;-74
2021/10/02 11:18:02;;;;;;;;;2.00;2.00;;;;;-144.24;100.00;60536.00;5089343;28;8842;-72
2021/10/02 11:20:33;;;;;;;;;2.00;2.00;;;;;-144.24;100.00;60536.00;5071845;28;9561;-75
2021/10/02 11:23:36;;;;;;;;;3.00;2.00;;;;;-144.24;100.00;60536.00;5090040;28;8792;-75
2021/10/02 11:26:23;;;;;;;;;4.67;3.00;;;;;-144.24;100.00;60536.00;5086125;28;8783;-77
2021/10/02 11:29:01;;;;;;;;;7.67;4.00;;;;;-144.24;100.00;60536.00;5084849;28;8796;-74
2021/10/02 11:31:27;;;;;;;;;4.00;2.00;;;;;-144.24;100.00;60536.00;5077580;28;8901;-79
2021/10/02 11:33:59;;;;;;;;;5.67;2.00;;;;;-144.24;100.00;60536.00;5080596;28;8819;-76
2021/10/02 11:36:30;;;;;;;;;2.33;2.00;;;;;-144.24;100.00;60536.00;5089469;28;8800;-77
2021/10/02 11:39:16;;;;;;;;;3.00;2.00;;;;;-144.24;100.00;60536.00;5089614;28;8925;-81
2021/10/02 11:41:51;;;;;;;;;3.67;2.33;;;;;-144.24;100.00;60536.00;5087923;28;8799;-77
2021/10/02 11:44:49;;;;;;;;;5.33;2.33;;;;;-144.24;100.00;60536.00;5075962;28;8793;-78
2021/10/02 11:47:26;;;;;;;;;2.67;2.00;;;;;-144.24;100.00;60536.00;5068787;28;8806;-79
2021/10/02 11:50:07;;;;;;;;;5.33;5.00;;;;;-144.24;100.00;60536.00;5078644;28;8787;-80
2021/10/02 11:52:38;;;;;;;;;4.67;3.00;;;;;-144.24;100.00;60536.00;5074730;28;8809;-79
2021/10/02 11:55:39;;;;;;;;;3.33;3.33;;;;;-144.24;100.00;60536.00;5076406;28;8879;-80
2021/10/02 11:58:07;;;;;;;;;3.33;2.00;;;;;-144.24;100.00;60536.00;5083186;28;8795;-77
2021/10/02 12:00:45;;;;;;;;;6.33;2.67;;;;;-144.24;100.00;60536.00;5086763;28;8799;-79
2021/10/02 12:03:29;;;;;;;;;5.33;3.00;;;;;-144.24;100.00;60536.00;5088838;28;8845;-77
2021/10/02 12:05:57;;;;;;;;;7.00;2.67;;;;;-144.24;100.00;60536.00;5088678;28;8791;-74
2021/10/02 12:08:22;;;;;;;;;5.33;2.00;;;;;-144.24;100.00;60536.00;5088474;28;8779;-77
2021/10/02 12:10:55;;;;;;;;;2.00;2.00;;;;;-144.24;100.00;60536.00;5088389;28;8815;-75
2021/10/02 12:13:21;;;;;;;;;4.33;3.00;;;;;-144.24;100.00;60536.00;5085809;28;8787;-74